Terminal Aerodrome Forecast
Issued by NWS

Home | Current Version | Previous Version | Graphics & Text | Print | Product List | Glossary On
Versions: 1 2 3 4 5 6 7 8 9 10 11 12 13 14 15 16 17 18 19
000
FTUS43 KUNR 191720
TAFGCC
TAF
KGCC 191720Z 1918/2018 21017G27KT P6SM SCT200
     FM192300 25012KT P6SM OVC060
     FM200200 VRB05KT P6SM -SHRA OVC040
     FM200500 22008KT P6SM SCT060=

USA.gov is the U.S. government's official web portal to all federal, state and local government web resources and services.